Etusivu
METAR-TAF:

METAR-TAF

Lentoasemat :

Sanikiluaqin lentoasema

Sanikiluaq, Nunavut, Kanada

Leveyspiiri: 56-32N, Pituuspiiri: 079-15W, korkeus merenpinnasta: 32 m

Tämänhetkinen sää

Tämä raportti tehtiin 41 minuuttia sitten, kello 15.00 UTC
Tuuli 10 kn lounaasta, vaihdellen etelän ja lännen välillä
Lämpötila 11°C
Kosteus 66%
Ilmanpaine 1005 hPa
Näkyvyys: 24.1 km
Muutamia pilviä 10000 ft:n korkeudessa
Hajanaisia pilviä 22000 ft:n korkeudessa

METAR: CYSK 301500Z 23010KT 190V280 15SM FEW100 SCT220 11/05 A2967 RMK AC2CS2 SLP049

Aika: 11:41 (15:41 UTC)


TAF: puuttuu

Säähavainnot ja -ennusteet yli 4000 lentoasemalta (METAR- ja TAF-raportit).

Käytössä olevat sääasemat on merkitty karttaan keltaisilla ja punaisilla pisteillä.

Aseta hiiri pisteen päälle nähdäksesi sääaseman nimen.

Klikkaa sitten nähdäksesi säähavainnot ja -ennusteet.

Kartan vaihtaminen: klikkaa mustalla rastilla varustettuja vihreitä pisteitä, niin voit zoomata sisään; viivalla varustettua vihreää pistettä, niin voit zoomata ulos tai vihreitä nuolia, niin pääset viereisille kartoille.


METAR-TAF: